Time;durP1;ratioP1;P1;durP2;ratioP2;P2;SDS_P1;SDS_P2;PMS_P1;PMS_P2;Temp;Humidity;BMP_temperature;BMP_pressure;BME280_temperature;BME280_humidity;BME280_pressure;Samples;Min_cycle;Max_cycle;Signal;HPM_P1;HPM_P2
2022/09/26 00:02:00;;;;;;;10.70;3.45;;;13.00;99.90;;;;;;5012509;28;20479;-70
2022/09/26 00:04:28;;;;;;;12.30;2.95;;;13.10;99.90;;;;;;5012376;28;20030;-70
2022/09/26 00:06:55;;;;;;;6.32;3.08;;;13.00;99.90;;;;;;5012360;28;20030;-70
2022/09/26 00:09:23;;;;;;;10.18;2.90;;;12.80;99.90;;;;;;5012707;28;20101;-70
2022/09/26 00:11:49;;;;;;;11.60;2.70;;;12.70;99.90;;;;;;5012105;28;20038;-70
2022/09/26 00:14:19;;;;;;;5.40;2.30;;;12.60;99.90;;;;;;5011271;28;20030;-70
2022/09/26 00:16:45;;;;;;;9.90;2.80;;;12.70;99.90;;;;;;5012204;28;20080;-70
2022/09/26 00:19:11;;;;;;;13.23;2.80;;;12.70;99.90;;;;;;5014957;28;20109;-70
2022/09/26 00:21:37;;;;;;;10.45;2.50;;;12.60;99.90;;;;;;5016084;28;20484;-71
2022/09/26 00:24:03;;;;;;;7.43;2.78;;;12.70;99.90;;;;;;5015783;28;20022;-70
2022/09/26 00:26:31;;;;;;;13.50;2.90;;;12.70;99.90;;;;;;5015621;28;20044;-70
2022/09/26 00:28:57;;;;;;;10.63;2.75;;;12.80;99.90;;;;;;5014441;28;20025;-70
2022/09/26 00:31:29;;;;;;;12.68;3.50;;;12.70;99.90;;;;;;5015887;28;20026;-70
2022/09/26 00:33:56;;;;;;;7.70;3.30;;;12.60;99.90;;;;;;5014522;28;20030;-69
2022/09/26 00:36:22;;;;;;;6.50;2.35;;;12.70;99.90;;;;;;5015544;28;20513;-70
2022/09/26 00:38:49;;;;;;;13.20;2.80;;;12.60;99.90;;;;;;5015899;28;20038;-70
2022/09/26 00:41:16;;;;;;;7.53;2.60;;;12.40;99.90;;;;;;5015179;28;20552;-70
2022/09/26 00:43:45;;;;;;;7.38;2.65;;;12.50;99.90;;;;;;5014509;28;20060;-70
2022/09/26 00:46:23;;;;;;;14.30;3.20;;;12.60;99.90;;;;;;5014034;28;20037;-70
2022/09/26 00:49:26;;;;;;;10.93;3.00;;;12.40;99.90;;;;;;5002878;28;20034;-69
2022/09/26 00:52:10;;;;;;;8.30;2.53;;;12.40;99.90;;;;;;5014098;28;20033;-70
2022/09/26 00:54:39;;;;;;;14.73;2.63;;;12.30;99.90;;;;;;5013792;28;20479;-70
2022/09/26 00:57:09;;;;;;;8.25;2.50;;;12.50;99.90;;;;;;5013955;28;20038;-70
2022/09/26 00:59:42;;;;;;;8.85;2.10;;;12.60;99.90;;;;;;5015225;28;20041;-70
2022/09/26 01:02:08;;;;;;;5.82;2.20;;;12.70;99.90;;;;;;5015233;28;20088;-70
2022/09/26 01:04:39;;;;;;;8.32;2.72;;;12.80;99.90;;;;;;5015037;28;20034;-70
2022/09/26 01:07:11;;;;;;;10.00;2.47;;;12.70;99.90;;;;;;5013873;28;20018;-70
2022/09/26 01:09:38;;;;;;;5.80;1.85;;;12.80;99.90;;;;;;5013658;28;20034;-70
2022/09/26 01:12:07;;;;;;;6.68;2.60;;;12.60;99.90;;;;;;5014889;28;20022;-70
2022/09/26 01:14:34;;;;;;;9.60;2.65;;;12.60;99.90;;;;;;5013667;28;20053;-70
2022/09/26 01:17:00;;;;;;;4.93;2.35;;;12.70;99.90;;;;;;5013711;28;20057;-70
2022/09/26 01:20:04;;;;;;;8.07;2.83;;;12.60;99.90;;;;;;5015158;28;20493;-70
2022/09/26 01:23:01;;;;;;;7.90;2.22;;;12.50;99.90;;;;;;5013535;28;20497;-70
2022/09/26 01:25:38;;;;;;;6.18;2.95;;;12.60;99.90;;;;;;5013387;28;20038;-70
2022/09/26 01:28:29;;;;;;;9.48;3.38;;;12.60;99.90;;;;;;5014827;28;20056;-69
2022/09/26 01:31:16;;;;;;;10.40;2.85;;;12.70;99.90;;;;;;5013485;28;20042;-70
2022/09/26 01:33:48;;;;;;;10.23;3.00;;;12.60;99.90;;;;;;4997098;28;20070;-69
2022/09/26 01:36:32;;;;;;;7.18;3.08;;;12.60;99.90;;;;;;5014527;28;20557;-69
2022/09/26 01:39:07;;;;;;;9.10;2.45;;;12.50;99.90;;;;;;5012772;28;20532;-69
2022/09/26 01:41:57;;;;;;;7.85;2.78;;;12.50;99.90;;;;;;5014525;28;20026;-70
2022/09/26 01:44:42;;;;;;;13.52;2.88;;;12.70;99.90;;;;;;5013137;28;20430;-70
2022/09/26 01:47:30;;;;;;;13.05;3.08;;;12.60;99.90;;;;;;5013214;28;20077;-70
2022/09/26 01:50:25;;;;;;;5.18;2.38;;;12.40;99.90;;;;;;5013061;28;20498;-69
2022/09/26 01:53:00;;;;;;;8.02;2.45;;;12.30;99.90;;;;;;5014055;28;20439;-70
2022/09/26 01:55:44;;;;;;;11.52;2.80;;;12.40;99.90;;;;;;4996517;28;20030;-69
2022/09/26 01:58:26;;;;;;;8.43;2.70;;;12.50;99.90;;;;;;5012899;28;20037;-69
2022/09/26 02:00:57;;;;;;;8.18;3.28;;;12.60;99.90;;;;;;4996848;28;20081;-69
2022/09/26 02:03:28;;;;;;;10.25;2.22;;;12.60;99.90;;;;;;5014134;28;20036;-70
2022/09/26 02:05:59;;;;;;;13.23;2.67;;;12.60;99.90;;;;;;5012773;28;20034;-69
2022/09/26 02:08:39;;;;;;;14.82;2.83;;;12.60;99.90;;;;;;5013855;28;20029;-69
2022/09/26 02:11:12;;;;;;;7.85;2.08;;;12.50;99.90;;;;;;5014081;28;20490;-68
2022/09/26 02:14:20;;;;;;;15.35;2.40;;;12.50;99.90;;;;;;5014074;28;20030;-66
2022/09/26 02:16:49;;;;;;;6.07;1.90;;;12.40;99.90;;;;;;5014065;28;20022;-70
2022/09/26 02:19:27;;;;;;;5.85;1.85;;;12.50;99.90;;;;;;5020463;28;20025;-67
2022/09/26 02:21:53;;;;;;;7.63;2.65;;;12.40;99.90;;;;;;5032637;28;20386;-70
2022/09/26 02:24:21;;;;;;;10.82;2.33;;;12.40;99.90;;;;;;5026032;28;20033;-70
2022/09/26 02:26:48;;;;;;;5.18;1.92;;;12.40;99.90;;;;;;5021376;28;20018;-70
2022/09/26 02:29:15;;;;;;;6.07;2.00;;;12.40;99.90;;;;;;5025107;28;20030;-70
2022/09/26 02:31:54;;;;;;;4.82;1.88;;;12.40;99.90;;;;;;5026730;28;20048;-70
2022/09/26 02:34:21;;;;;;;9.95;1.77;;;12.40;99.90;;;;;;5031940;28;20117;-70
2022/09/26 02:36:47;;;;;;;7.40;1.67;;;12.50;99.90;;;;;;5031513;28;20017;-70
2022/09/26 02:39:13;;;;;;;8.43;2.47;;;12.40;99.90;;;;;;5018561;28;20026;-70
2022/09/26 02:41:56;;;;;;;8.30;1.70;;;12.50;99.90;;;;;;5031790;28;20022;-70
2022/09/26 02:44:53;;;;;;;7.63;2.35;;;12.50;99.90;;;;;;5031669;28;20067;-71
2022/09/26 02:47:30;;;;;;;4.38;1.88;;;12.60;99.90;;;;;;5025024;28;20042;-70
2022/09/26 02:50:19;;;;;;;9.65;2.03;;;12.40;99.90;;;;;;5031609;28;20029;-70
2022/09/26 02:53:25;;;;;;;9.35;2.20;;;12.40;99.90;;;;;;5031454;28;20470;-70
2022/09/26 02:56:26;;;;;;;16.67;2.40;;;12.40;99.90;;;;;;5017360;28;20486;-70
2022/09/26 02:58:51;;;;;;;6.47;1.58;;;12.60;99.90;;;;;;5021102;28;20049;-70
2022/09/26 03:01:44;;;;;;;8.40;1.92;;;12.50;99.90;;;;;;5031856;28;20078;-70
2022/09/26 03:04:20;;;;;;;5.68;1.85;;;12.50;99.90;;;;;;5031298;28;20128;-70
2022/09/26 03:06:51;;;;;;;6.30;2.47;;;12.50;99.90;;;;;;5031380;28;20022;-69
2022/09/26 03:09:18;;;;;;;4.88;1.73;;;12.50;99.90;;;;;;5031506;28;20029;-70
2022/09/26 03:11:45;;;;;;;10.02;1.90;;;12.50;99.90;;;;;;5031745;28;20018;-70
2022/09/26 03:14:13;;;;;;;10.35;2.30;;;12.40;99.90;;;;;;5031436;28;20390;-70
2022/09/26 03:16:43;;;;;;;4.80;1.83;;;12.40;99.90;;;;;;5031716;28;20112;-70
2022/09/26 03:19:25;;;;;;;6.85;2.45;;;12.30;99.90;;;;;;5032472;28;20481;-70
2022/09/26 03:21:53;;;;;;;13.95;2.58;;;12.40;99.90;;;;;;5031576;28;20021;-70
2022/09/26 03:24:19;;;;;;;9.00;2.08;;;12.50;99.90;;;;;;5031054;28;20041;-70
2022/09/26 03:26:46;;;;;;;4.05;2.08;;;12.50;99.90;;;;;;5031301;28;20064;-70
2022/09/26 03:29:13;;;;;;;5.03;2.58;;;12.30;99.90;;;;;;5031371;28;20045;-70
2022/09/26 03:31:39;;;;;;;7.28;3.00;;;12.30;99.90;;;;;;5031113;28;20037;-71
2022/09/26 03:34:08;;;;;;;5.22;2.13;;;12.30;99.90;;;;;;5030754;28;20367;-70
2022/09/26 03:36:38;;;;;;;9.50;2.80;;;12.20;99.90;;;;;;5031214;28;20537;-70
2022/09/26 03:39:06;;;;;;;11.27;2.80;;;12.20;99.90;;;;;;5031440;28;20033;-70
2022/09/26 03:41:42;;;;;;;7.72;3.30;;;12.20;99.90;;;;;;5031061;28;20022;-70
2022/09/26 03:44:28;;;;;;;12.30;3.63;;;12.20;99.90;;;;;;5031262;28;20029;-70
2022/09/26 03:47:13;;;;;;;8.90;3.60;;;12.20;99.90;;;;;;5031574;28;20041;-70
2022/09/26 03:49:41;;;;;;;8.77;2.70;;;12.30;99.90;;;;;;5032256;28;20497;-71
2022/09/26 03:52:12;;;;;;;11.48;3.55;;;12.30;99.90;;;;;;5029821;28;20108;-70
2022/09/26 03:54:38;;;;;;;10.60;3.10;;;12.30;99.90;;;;;;5034773;28;20410;-70
2022/09/26 03:57:04;;;;;;;7.30;3.17;;;12.20;99.90;;;;;;5036143;28;20040;-69
2022/09/26 03:59:33;;;;;;;5.85;3.00;;;12.20;99.90;;;;;;5035155;28;20019;-70
2022/09/26 04:01:59;;;;;;;10.70;3.47;;;12.20;99.90;;;;;;5034568;28;20088;-70
2022/09/26 04:04:26;;;;;;;13.55;3.75;;;12.20;99.90;;;;;;5035744;28;20033;-70
2022/09/26 04:06:52;;;;;;;14.93;3.55;;;12.10;99.90;;;;;;5034762;28;20036;-70
2022/09/26 04:09:18;;;;;;;8.50;3.10;;;12.10;99.90;;;;;;5034705;28;20367;-70
2022/09/26 04:11:47;;;;;;;5.15;3.03;;;12.10;99.90;;;;;;5034821;28;20060;-70
2022/09/26 04:14:13;;;;;;;9.88;2.60;;;12.10;99.90;;;;;;5034488;28;20029;-70
2022/09/26 04:16:40;;;;;;;12.45;3.47;;;12.10;99.90;;;;;;5034689;28;20022;-70
2022/09/26 04:19:29;;;;;;;9.55;3.22;;;12.10;99.90;;;;;;5029967;28;20393;-70
2022/09/26 04:21:58;;;;;;;12.85;3.00;;;12.00;99.90;;;;;;5034696;28;20084;-69
2022/09/26 04:24:24;;;;;;;12.60;3.28;;;12.10;99.90;;;;;;5035647;28;20424;-70
2022/09/26 04:26:50;;;;;;;10.98;3.05;;;12.20;99.90;;;;;;5034391;28;20026;-70
2022/09/26 04:29:17;;;;;;;9.77;2.63;;;12.30;99.90;;;;;;5034133;28;20378;-70
2022/09/26 04:31:53;;;;;;;15.13;3.20;;;12.40;99.90;;;;;;5033963;28;20057;-70
2022/09/26 04:34:24;;;;;;;6.07;2.10;;;12.20;99.90;;;;;;5034444;28;20033;-70
2022/09/26 04:36:51;;;;;;;6.88;2.40;;;12.10;99.90;;;;;;5034350;28;20038;-69
2022/09/26 04:39:17;;;;;;;4.95;2.70;;;12.10;99.90;;;;;;5034133;28;20423;-70
2022/09/26 04:41:44;;;;;;;11.10;3.22;;;12.20;99.90;;;;;;5034055;28;20474;-70
2022/09/26 04:44:12;;;;;;;12.02;2.00;;;12.20;99.90;;;;;;5033899;28;20075;-70
2022/09/26 04:46:38;;;;;;;8.75;2.42;;;12.20;99.90;;;;;;5031802;28;20045;-70
2022/09/26 04:49:04;;;;;;;6.05;1.80;;;12.10;99.90;;;;;;5033968;28;20044;-70
2022/09/26 04:51:31;;;;;;;8.75;2.33;;;12.20;99.90;;;;;;5034072;28;20509;-70
2022/09/26 04:53:57;;;;;;;6.28;2.10;;;12.10;99.90;;;;;;5033613;28;20025;-70
2022/09/26 04:56:26;;;;;;;8.38;2.30;;;12.20;99.90;;;;;;5033729;28;20053;-70
2022/09/26 04:58:55;;;;;;;7.22;2.63;;;12.20;99.90;;;;;;5033693;28;20040;-70
2022/09/26 05:01:22;;;;;;;10.82;2.50;;;12.20;99.90;;;;;;5033505;28;20033;-70
2022/09/26 05:04:02;;;;;;;8.68;2.63;;;12.30;99.90;;;;;;5033358;28;20415;-70
2022/09/26 05:06:30;;;;;;;8.10;2.22;;;12.20;99.90;;;;;;5033488;28;20029;-70
2022/09/26 05:08:56;;;;;;;4.10;2.33;;;12.20;99.90;;;;;;5034943;28;20038;-70
2022/09/26 05:11:36;;;;;;;8.57;2.22;;;12.10;99.90;;;;;;5033700;28;20037;-70
2022/09/26 05:14:02;;;;;;;6.47;2.53;;;12.10;99.90;;;;;;5033374;28;20490;-69
2022/09/26 05:16:29;;;;;;;5.65;2.30;;;12.20;99.90;;;;;;5033519;28;20473;-70
2022/09/26 05:18:58;;;;;;;8.38;2.53;;;12.10;99.90;;;;;;5023865;28;20029;-69
2022/09/26 05:21:26;;;;;;;8.90;2.67;;;12.20;99.90;;;;;;5022759;28;20079;-70
2022/09/26 05:26:42;;;;;;;5.55;1.83;;;12.10;99.90;;;;;;5033342;28;20510;-70
2022/09/26 05:29:09;;;;;;;10.60;2.05;;;12.20;99.90;;;;;;5034000;28;20553;-70
2022/09/26 05:31:53;;;;;;;10.80;2.75;;;12.30;99.90;;;;;;5033115;28;20026;-70
2022/09/26 05:34:20;;;;;;;7.40;2.30;;;12.20;99.90;;;;;;5033590;28;20414;-70
2022/09/26 05:36:46;;;;;;;10.25;2.55;;;12.10;99.90;;;;;;5033152;28;20122;-70
2022/09/26 05:41:57;;;;;;;6.28;2.10;;;12.20;99.90;;;;;;5033043;28;20041;-69
2022/09/26 05:44:24;;;;;;;13.23;2.60;;;12.20;99.90;;;;;;5032205;28;20390;-70
2022/09/26 05:46:51;;;;;;;7.63;2.38;;;12.20;99.90;;;;;;5032218;28;20029;-70
2022/09/26 05:49:17;;;;;;;9.30;2.25;;;12.40;99.90;;;;;;5034052;28;20358;-70
2022/09/26 05:51:43;;;;;;;6.00;2.25;;;12.30;99.90;;;;;;5032753;28;20032;-70
2022/09/26 05:54:12;;;;;;;5.22;2.83;;;12.30;99.90;;;;;;5004858;28;20108;-70
2022/09/26 05:56:40;;;;;;;6.32;2.53;;;12.40;99.90;;;;;;5032761;28;20021;-70
2022/09/26 05:59:14;;;;;;;5.40;2.72;;;12.30;99.90;;;;;;5033410;28;20061;-69
2022/09/26 06:01:59;;;;;;;7.15;2.35;;;12.20;99.90;;;;;;5034140;28;20041;-69
2022/09/26 06:04:45;;;;;;;11.38;2.90;;;12.20;99.90;;;;;;5033215;28;20061;-70
2022/09/26 06:07:31;;;;;;;7.55;2.25;;;12.20;99.90;;;;;;5032314;28;20033;-70
2022/09/26 06:09:57;;;;;;;6.80;2.33;;;12.20;99.90;;;;;;5032516;28;20041;-69
2022/09/26 06:12:37;;;;;;;14.18;2.33;;;12.30;99.90;;;;;;5032341;28;20028;-69
2022/09/26 06:15:05;;;;;;;7.57;2.58;;;12.30;99.90;;;;;;5031984;28;20041;-69
2022/09/26 06:17:31;;;;;;;9.23;2.72;;;12.40;99.90;;;;;;5031765;28;20026;-69
2022/09/26 06:19:57;;;;;;;7.93;2.50;;;12.40;99.90;;;;;;5032163;28;20022;-69
2022/09/26 06:22:23;;;;;;;10.50;2.72;;;12.40;99.90;;;;;;5033545;28;20025;-69
2022/09/26 06:24:49;;;;;;;8.25;1.98;;;12.30;99.90;;;;;;5031827;28;20394;-69
2022/09/26 06:27:15;;;;;;;7.63;1.83;;;12.40;99.90;;;;;;5032171;28;20026;-69
2022/09/26 06:29:41;;;;;;;5.85;2.08;;;12.30;99.90;;;;;;5015139;28;20037;-69
2022/09/26 06:32:07;;;;;;;6.07;2.15;;;12.20;99.90;;;;;;5033605;28;20080;-69
2022/09/26 06:34:51;;;;;;;10.05;2.10;;;12.20;99.90;;;;;;5015097;28;20026;-68
2022/09/26 06:37:42;;;;;;;8.18;2.25;;;12.20;99.90;;;;;;4995597;28;20045;-69
2022/09/26 06:40:10;;;;;;;5.97;1.50;;;12.30;99.90;;;;;;5014075;28;20108;-69
2022/09/26 06:42:39;;;;;;;7.25;2.50;;;12.20;99.90;;;;;;5010897;28;20072;-69
2022/09/26 06:45:23;;;;;;;12.82;2.50;;;12.20;99.90;;;;;;5009209;28;20045;-69
2022/09/26 06:48:10;;;;;;;9.55;2.38;;;12.30;99.90;;;;;;5000173;28;20034;-69
2022/09/26 06:50:59;;;;;;;12.35;2.22;;;12.30;99.90;;;;;;5008655;28;20087;-69
2022/09/26 06:53:26;;;;;;;8.87;2.13;;;12.40;99.90;;;;;;5010106;28;20022;-68
2022/09/26 06:55:54;;;;;;;13.68;2.38;;;12.40;99.90;;;;;;5010197;28;20030;-68
2022/09/26 06:58:20;;;;;;;6.53;1.98;;;12.40;99.90;;;;;;5008781;28;20378;-69
2022/09/26 07:00:52;;;;;;;6.50;2.55;;;12.40;99.90;;;;;;4997009;28;20025;-69
2022/09/26 07:03:27;;;;;;;7.93;2.10;;;12.40;99.90;;;;;;5005635;28;20050;-69
2022/09/26 07:06:04;;;;;;;7.13;1.95;;;12.30;99.90;;;;;;5002764;28;20038;-68
2022/09/26 07:08:30;;;;;;;6.15;1.90;;;12.30;99.90;;;;;;4999543;28;20467;-68
2022/09/26 07:11:00;;;;;;;15.15;2.58;;;12.30;99.90;;;;;;4995903;28;20033;-69
2022/09/26 07:13:28;;;;;;;5.72;2.10;;;12.30;99.90;;;;;;5000700;28;20026;-69
2022/09/26 07:15:58;;;;;;;9.93;2.03;;;12.30;99.90;;;;;;5005540;28;20401;-69
2022/09/26 07:18:46;;;;;;;10.93;2.05;;;12.20;99.90;;;;;;5009180;28;20018;-69
2022/09/26 07:21:20;;;;;;;10.07;2.47;;;12.40;99.90;;;;;;5006626;28;20025;-69
2022/09/26 07:24:04;;;;;;;4.40;1.95;;;12.60;99.90;;;;;;5012805;28;20844;-64
2022/09/26 07:26:30;;;;;;;8.70;2.03;;;12.60;99.90;;;;;;5013069;28;20140;-69
2022/09/26 07:28:56;;;;;;;9.75;2.03;;;12.60;99.90;;;;;;5032295;28;20041;-70
2022/09/26 07:31:25;;;;;;;7.53;2.10;;;12.60;99.90;;;;;;5032598;28;20041;-69
2022/09/26 07:34:10;;;;;;;5.13;1.92;;;12.60;99.90;;;;;;5011323;28;20467;-66
2022/09/26 07:36:39;;;;;;;6.03;2.33;;;12.80;99.90;;;;;;5013676;28;20026;-69
2022/09/26 07:39:05;;;;;;;11.05;2.17;;;12.70;99.90;;;;;;5020079;28;20478;-70
2022/09/26 07:41:31;;;;;;;7.75;2.33;;;12.80;99.90;;;;;;5028425;28;20482;-70
2022/09/26 07:43:58;;;;;;;8.93;2.20;;;12.80;99.90;;;;;;5021205;28;20018;-70
2022/09/26 07:52:16;;;;;;;9.80;3.13;;;12.90;99.90;;;;;;4996701;28;20038;-70
2022/09/26 07:55:06;;;;;;;13.52;2.92;;;12.80;99.90;;;;;;4995743;28;20088;-70
2022/09/26 07:57:50;;;;;;;8.50;2.45;;;13.00;99.90;;;;;;5016138;28;20029;-71
2022/09/26 08:00:45;;;;;;;6.05;2.15;;;12.90;99.90;;;;;;4979775;28;20075;-70
2022/09/26 08:03:31;;;;;;;16.15;2.53;;;12.90;99.90;;;;;;4995554;28;20402;-70
2022/09/26 08:06:01;;;;;;;6.47;2.33;;;12.90;99.90;;;;;;5007934;28;20038;-70
2022/09/26 08:08:28;;;;;;;6.30;2.38;;;13.00;99.90;;;;;;5021421;28;20030;-70
2022/09/26 08:11:17;;;;;;;10.18;1.80;;;13.00;99.90;;;;;;5019696;28;20038;-70
2022/09/26 08:14:01;;;;;;;8.98;2.28;;;12.80;99.90;;;;;;5014659;28;20153;-69
2022/09/26 08:16:40;;;;;;;9.05;2.15;;;12.80;99.90;;;;;;5015175;28;20037;-70
2022/09/26 08:19:07;;;;;;;7.80;2.72;;;12.80;99.90;;;;;;5022902;28;20053;-70
2022/09/26 08:21:34;;;;;;;12.63;2.60;;;12.90;99.90;;;;;;5021293;28;20025;-70
2022/09/26 08:24:00;;;;;;;7.55;1.70;;;13.00;99.90;;;;;;5017623;28;20022;-69
2022/09/26 08:26:42;;;;;;;8.57;2.17;;;12.90;99.90;;;;;;5020496;28;20029;-70
2022/09/26 08:29:31;;;;;;;13.35;2.10;;;13.10;99.90;;;;;;5032996;28;20121;-70
2022/09/26 08:32:01;;;;;;;7.90;2.35;;;12.90;99.90;;;;;;5033523;28;20069;-70
2022/09/26 08:34:30;;;;;;;11.68;2.63;;;12.90;99.90;;;;;;5033108;28;20033;-69
2022/09/26 08:37:16;;;;;;;9.40;2.13;;;13.00;99.90;;;;;;5025462;28;20094;-70
2022/09/26 08:40:00;;;;;;;13.10;2.72;;;13.00;99.90;;;;;;5024459;28;20517;-70
2022/09/26 08:43:36;;;;;;;9.02;2.22;;;13.00;99.90;;;;;;5034754;28;20450;-70
2022/09/26 08:49:59;;;;;;;12.40;2.60;;;12.70;99.90;;;;;;5003652;28;20034;-70
2022/09/26 08:52:25;;;;;;;10.07;2.72;;;12.80;99.90;;;;;;5016616;28;20044;-69
2022/09/26 08:54:54;;;;;;;16.52;3.17;;;12.80;99.90;;;;;;5011767;28;20026;-70
2022/09/26 08:57:22;;;;;;;7.75;2.72;;;12.80;99.90;;;;;;5015921;28;20116;-71
2022/09/26 08:59:50;;;;;;;11.20;2.70;;;12.70;99.90;;;;;;5016433;28;20029;-70
2022/09/26 09:02:30;;;;;;;11.18;2.80;;;12.60;99.90;;;;;;5004834;28;20021;-70
2022/09/26 09:05:02;;;;;;;9.52;2.83;;;12.60;99.90;;;;;;5002743;28;20467;-70
2022/09/26 09:07:30;;;;;;;11.20;2.73;;;12.60;99.90;;;;;;5016547;28;20022;-70
2022/09/26 09:10:01;;;;;;;10.50;2.85;;;12.70;99.90;;;;;;5020570;28;20275;-71
2022/09/26 09:13:04;;;;;;;8.70;2.90;;;12.60;99.90;;;;;;5018751;28;20493;-70
2022/09/26 09:16:19;;;;;;;15.27;4.35;;;12.70;99.90;;;;;;5011523;28;20030;-70
2022/09/26 09:19:37;;;;;;;10.90;3.30;;;12.70;99.90;;;;;;5008524;28;20394;-70
2022/09/26 09:23:03;;;;;;;13.00;3.72;;;12.70;99.90;;;;;;4947307;28;20035;-70
2022/09/26 09:26:03;;;;;;;4.55;2.58;;;12.50;99.90;;;;;;5015515;28;20030;-70
2022/09/26 09:28:44;;;;;;;6.80;2.30;;;12.60;99.90;;;;;;5029169;28;20108;-69
2022/09/26 09:31:15;;;;;;;13.25;3.05;;;12.40;99.90;;;;;;5032865;28;20037;-69
2022/09/26 09:34:03;;;;;;;12.50;2.83;;;12.50;99.90;;;;;;5007815;28;20021;-70
2022/09/26 09:36:54;;;;;;;10.73;3.00;;;12.50;99.90;;;;;;5029690;28;20037;-70
2022/09/26 09:39:50;;;;;;;6.32;3.30;;;12.50;99.90;;;;;;5023754;28;20037;-69
2022/09/26 09:42:44;;;;;;;7.10;2.40;;;12.40;99.90;;;;;;5011686;28;20021;-70
2022/09/26 09:45:18;;;;;;;16.08;3.33;;;12.40;99.90;;;;;;4992951;28;20056;-70
2022/09/26 09:47:44;;;;;;;8.60;2.47;;;12.50;99.90;;;;;;5010249;28;20026;-69
2022/09/26 09:50:29;;;;;;;6.50;3.33;;;12.60;99.90;;;;;;5009472;28;20026;-70
2022/09/26 09:53:05;;;;;;;13.30;3.53;;;12.50;99.90;;;;;;5014326;28;20033;-68
2022/09/26 09:56:03;;;;;;;9.07;3.00;;;12.50;99.90;;;;;;5006915;28;20046;-71
2022/09/26 09:58:38;;;;;;;8.02;3.40;;;12.40;99.90;;;;;;5009176;28;20038;-71
2022/09/26 10:01:27;;;;;;;12.68;3.40;;;12.40;99.90;;;;;;5004859;28;20120;-71
2022/09/26 10:04:00;;;;;;;10.93;3.17;;;12.60;99.90;;;;;;5013664;28;20060;-67
2022/09/26 10:06:26;;;;;;;4.70;2.70;;;12.60;99.90;;;;;;5019913;28;20070;-71
2022/09/26 10:08:52;;;;;;;6.45;3.13;;;12.60;99.90;;;;;;5009850;28;20049;-71
2022/09/26 10:11:41;;;;;;;6.50;3.63;;;12.50;99.90;;;;;;5015927;28;20048;-71
2022/09/26 10:14:34;;;;;;;7.00;3.05;;;12.60;99.90;;;;;;5018246;28;20054;-71
2022/09/26 10:17:09;;;;;;;13.18;3.75;;;12.60;99.90;;;;;;5014410;28;20120;-71
2022/09/26 10:20:04;;;;;;;12.35;3.85;;;12.60;99.90;;;;;;5006415;28;20045;-72
2022/09/26 10:22:44;;;;;;;11.48;3.78;;;12.70;99.90;;;;;;4999248;28;20391;-71
2022/09/26 10:25:21;;;;;;;8.05;3.35;;;12.70;99.90;;;;;;5011466;28;20040;-68
2022/09/26 10:27:54;;;;;;;11.48;2.97;;;12.60;99.90;;;;;;5024400;28;20022;-70
2022/09/26 10:30:21;;;;;;;10.75;3.80;;;12.50;99.90;;;;;;5014882;28;20398;-69
2022/09/26 10:32:57;;;;;;;9.93;3.30;;;12.60;99.90;;;;;;5031697;28;20025;-69
2022/09/26 10:35:47;;;;;;;5.90;2.42;;;12.50;99.90;;;;;;5031873;28;20104;-69
2022/09/26 10:38:27;;;;;;;8.07;2.65;;;12.50;99.90;;;;;;5032094;28;20460;-70
2022/09/26 10:41:04;;;;;;;6.18;2.50;;;12.40;99.90;;;;;;5032097;28;20025;-70
2022/09/26 10:43:36;;;;;;;8.25;2.63;;;12.50;99.90;;;;;;5015895;28;20524;-71
2022/09/26 10:46:22;;;;;;;6.97;3.22;;;12.50;99.90;;;;;;5031802;28;20036;-70
2022/09/26 10:49:14;;;;;;;9.80;3.40;;;12.50;99.90;;;;;;5032942;28;20096;-70
2022/09/26 10:52:15;;;;;;;6.90;3.15;;;12.50;99.90;;;;;;5032900;28;20069;-69
2022/09/26 10:55:03;;;;;;;6.68;2.05;;;12.40;99.90;;;;;;5032919;28;20029;-69
2022/09/26 10:57:44;;;;;;;8.18;2.50;;;12.40;99.90;;;;;;5031672;28;20363;-70
2022/09/26 11:00:35;;;;;;;5.82;2.50;;;12.50;99.90;;;;;;5032869;28;20033;-69
2022/09/26 11:03:14;;;;;;;9.80;2.20;;;12.40;99.90;;;;;;5014815;28;20486;-69
2022/09/26 11:06:00;;;;;;;4.90;2.25;;;12.40;99.90;;;;;;5032182;28;20107;-69
2022/09/26 11:08:36;;;;;;;5.63;2.20;;;12.50;99.90;;;;;;5031790;28;20017;-69
2022/09/26 11:11:21;;;;;;;5.40;2.45;;;12.50;99.90;;;;;;5006371;28;20025;-69
2022/09/26 11:14:09;;;;;;;4.60;2.42;;;12.50;99.90;;;;;;5031304;28;20029;-69
2022/09/26 11:16:50;;;;;;;15.88;2.58;;;12.40;99.90;;;;;;5031549;28;20028;-69
2022/09/26 11:19:43;;;;;;;6.53;2.65;;;12.40;99.90;;;;;;5031032;28;20032;-69
2022/09/26 11:22:24;;;;;;;2.83;2.08;;;12.40;99.90;;;;;;5031481;28;20030;-69
2022/09/26 11:25:13;;;;;;;6.23;2.70;;;12.40;99.90;;;;;;5031179;28;20486;-69
2022/09/26 11:27:51;;;;;;;8.73;2.33;;;12.50;99.90;;;;;;5019624;28;20491;-69
2022/09/26 11:30:27;;;;;;;6.57;2.33;;;12.50;99.90;;;;;;5004177;28;20037;-69
2022/09/26 11:32:59;;;;;;;8.18;2.50;;;12.60;99.90;;;;;;5031150;28;20037;-69
2022/09/26 11:35:32;;;;;;;4.47;2.45;;;12.60;99.90;;;;;;5032695;28;20030;-69
2022/09/26 11:38:39;;;;;;;3.85;2.15;;;12.70;99.90;;;;;;5031325;28;20044;-69
2022/09/26 11:41:37;;;;;;;5.95;2.55;;;12.70;99.90;;;;;;5031246;28;20026;-69
2022/09/26 11:44:28;;;;;;;6.05;2.50;;;12.70;99.90;;;;;;5031192;28;20113;-69
2022/09/26 11:47:49;;;;;;;4.28;2.20;;;12.70;99.90;;;;;;5032274;28;20124;-69
2022/09/26 11:50:48;;;;;;;4.50;2.30;;;12.60;99.90;;;;;;5031249;28;20417;-69
2022/09/26 11:53:43;;;;;;;6.90;2.10;;;12.50;99.90;;;;;;5031136;28;20056;-69
2022/09/26 11:56:33;;;;;;;6.97;2.47;;;12.50;99.90;;;;;;5032036;28;20042;-70
2022/09/26 11:59:26;;;;;;;5.43;2.22;;;12.50;99.90;;;;;;5032229;28;20493;-69
2022/09/26 12:02:14;;;;;;;5.15;2.17;;;12.50;99.90;;;;;;5031908;28;20047;-69
2022/09/26 12:05:01;;;;;;;4.28;2.20;;;12.50;99.90;;;;;;5009666;28;20027;-69
2022/09/26 12:08:05;;;;;;;3.47;1.92;;;12.50;99.90;;;;;;5030818;28;20425;-69
2022/09/26 12:10:49;;;;;;;5.78;2.20;;;12.50;99.90;;;;;;5032381;28;20034;-69
2022/09/26 12:13:36;;;;;;;3.67;2.47;;;12.60;99.90;;;;;;5032399;28;20113;-69
2022/09/26 12:16:17;;;;;;;4.78;3.00;;;12.70;99.90;;;;;;5035406;28;20108;-69
2022/09/26 12:18:53;;;;;;;8.18;2.75;;;12.50;99.90;;;;;;5036049;28;20481;-69
2022/09/26 12:21:30;;;;;;;7.43;4.00;;;12.40;99.90;;;;;;5016819;28;20508;-69
2022/09/26 12:24:22;;;;;;;7.55;3.42;;;12.60;99.90;;;;;;5035536;28;20448;-69
2022/09/26 12:27:24;;;;;;;6.85;3.30;;;12.50;99.90;;;;;;5023716;28;20041;-69
2022/09/26 12:30:12;;;;;;;5.93;3.40;;;12.40;99.90;;;;;;5026536;28;20087;-69
2022/09/26 12:33:12;;;;;;;4.22;2.78;;;12.50;99.90;;;;;;5035651;28;20510;-69
2022/09/26 12:36:03;;;;;;;8.30;4.32;;;12.40;99.90;;;;;;5034391;28;20037;-70
2022/09/26 12:39:11;;;;;;;7.75;3.28;;;12.60;99.90;;;;;;5035563;28;20061;-69
2022/09/26 12:41:57;;;;;;;5.65;3.60;;;12.50;99.90;;;;;;5035187;28;20048;-69
2022/09/26 12:44:31;;;;;;;6.68;3.53;;;12.70;99.90;;;;;;5035176;28;20501;-69
2022/09/26 12:47:03;;;;;;;5.72;3.08;;;12.70;99.90;;;;;;5035247;28;20030;-69
2022/09/26 12:49:38;;;;;;;5.20;3.20;;;12.60;99.90;;;;;;5035442;28;20060;-70
2022/09/26 12:52:25;;;;;;;5.65;3.13;;;12.60;99.90;;;;;;5035086;28;20033;-71
2022/09/26 12:55:25;;;;;;;3.28;2.25;;;12.80;99.90;;;;;;5035155;28;20124;-70
2022/09/26 12:58:12;;;;;;;3.53;2.15;;;12.70;99.90;;;;;;5029148;28;20036;-69
2022/09/26 13:00:51;;;;;;;3.25;2.60;;;12.60;99.90;;;;;;5034556;28;20052;-69
2022/09/26 13:03:40;;;;;;;3.28;1.80;;;12.80;99.90;;;;;;5035126;28;20032;-69
2022/09/26 13:06:27;;;;;;;4.80;2.42;;;12.70;99.90;;;;;;5007259;28;20061;-69
2022/09/26 13:08:56;;;;;;;3.63;2.20;;;12.80;99.90;;;;;;5034808;28;20026;-69
2022/09/26 13:11:51;;;;;;;2.53;2.25;;;13.00;99.90;;;;;;5035114;28;20025;-70
2022/09/26 13:14:26;;;;;;;5.50;2.03;;;13.10;99.90;;;;;;5034615;28;20104;-70
2022/09/26 13:17:09;;;;;;;2.30;2.10;;;12.90;99.90;;;;;;5033617;28;20061;-69
2022/09/26 13:19:42;;;;;;;2.47;1.63;;;12.70;99.90;;;;;;5034669;28;20068;-70
2022/09/26 13:22:16;;;;;;;4.93;1.92;;;12.70;99.90;;;;;;5034713;28;20037;-69
2022/09/26 13:24:55;;;;;;;4.85;2.10;;;12.70;99.90;;;;;;5034512;28;20068;-69
2022/09/26 13:27:28;;;;;;;4.85;1.73;;;12.70;99.90;;;;;;5034585;28;20037;-69
2022/09/26 13:30:15;;;;;;;3.22;1.77;;;12.90;99.90;;;;;;5034073;28;20041;-69
2022/09/26 13:33:19;;;;;;;2.08;1.50;;;12.70;99.90;;;;;;5034722;28;20486;-68
2022/09/26 13:35:49;;;;;;;2.97;1.90;;;12.90;99.90;;;;;;5034683;28;20025;-70
2022/09/26 13:38:37;;;;;;;3.45;2.00;;;12.90;99.90;;;;;;5033074;28;20458;-69
2022/09/26 13:41:26;;;;;;;1.40;1.25;;;12.90;99.90;;;;;;5034426;28;20029;-69
2022/09/26 13:44:27;;;;;;;3.92;1.75;;;12.80;99.90;;;;;;5033968;28;20133;-69
2022/09/26 13:47:07;;;;;;;7.40;1.95;;;13.00;99.90;;;;;;5034280;28;20110;-70
2022/09/26 13:49:36;;;;;;;3.20;2.00;;;13.00;99.90;;;;;;5034267;28;20112;-69
2022/09/26 13:52:17;;;;;;;3.13;2.20;;;13.10;99.90;;;;;;5032971;28;20021;-69